createdAt,value
2022-12-18T00:31:08.143Z,37234.28
2022-12-18T00:33:36.003Z,-11427.31
2022-12-18T00:36:08.209Z,-11427.31
2022-12-18T00:38:35.596Z,-11427.31
2022-12-18T00:41:02.586Z,-11427.31
2022-12-18T00:50:50.028Z,20945.94
2022-12-18T00:53:17.013Z,-11427.31
2022-12-18T00:55:43.756Z,20945.94
2022-12-18T01:10:25.163Z,98216.13
2022-12-18T02:02:02.384Z,98177.84
2022-12-18T02:30:02.547Z,98207.16
2022-12-18T02:32:34.817Z,98207.16
2022-12-18T02:35:05.566Z,98210.25
2022-12-18T02:42:28.876Z,98196.78
2022-12-18T03:02:47.450Z,98263.41
2022-12-18T03:05:30.373Z,98270.00
2022-12-18T03:08:06.128Z,98270.00
2022-12-18T03:10:36.403Z,98111.47
2022-12-18T03:13:24.537Z,98111.47
2022-12-18T03:41:10.569Z,98066.53
2022-12-18T03:51:45.481Z,98350.47
2022-12-18T03:54:12.925Z,98363.03
2022-12-18T03:56:46.589Z,98365.63
2022-12-18T03:59:16.116Z,98393.03
2022-12-18T04:01:48.447Z,98398.50
2022-12-18T04:04:17.625Z,98407.50
2022-12-18T04:06:46.479Z,98409.50
2022-12-18T04:09:13.703Z,98416.22
2022-12-18T04:11:42.122Z,98417.69
2022-12-18T04:14:11.858Z,98406.47
2022-12-18T04:16:41.017Z,98418.88
2022-12-18T04:19:07.573Z,98416.19
2022-12-18T04:21:34.102Z,98412.75
2022-12-18T04:24:00.633Z,98421.88
2022-12-18T04:26:27.216Z,98439.09
2022-12-18T04:28:53.707Z,98434.25
2022-12-18T04:31:20.222Z,98444.22
2022-12-18T04:33:46.801Z,98439.63
2022-12-18T04:36:13.333Z,98444.03
2022-12-18T04:38:39.847Z,98460.66
2022-12-18T04:41:06.423Z,98463.59
2022-12-18T04:43:33.112Z,98472.13
2022-12-18T04:46:04.557Z,98468.09
2022-12-18T04:48:31.355Z,98485.00
2022-12-18T04:50:57.916Z,98496.34
2022-12-18T04:53:24.602Z,98498.94
2022-12-18T04:55:51.213Z,98503.69
2022-12-18T04:58:17.780Z,98517.25
2022-12-18T05:00:44.343Z,98522.63
2022-12-18T05:03:10.971Z,98538.06
2022-12-18T05:05:37.523Z,98531.59
2022-12-18T05:08:04.249Z,98543.84
2022-12-18T05:10:37.743Z,98538.50
2022-12-18T05:13:05.284Z,98539.19
2022-12-18T05:15:33.901Z,98541.91
2022-12-18T05:18:01.266Z,98554.63
2022-12-18T05:20:28.117Z,98575.50
2022-12-18T05:22:55.436Z,98570.47
2022-12-18T05:25:22.614Z,98588.47
2022-12-18T05:27:49.543Z,98598.63
2022-12-18T05:30:17.135Z,98601.88
2022-12-18T05:32:44.019Z,98605.16
2022-12-18T05:35:12.197Z,98607.47
2022-12-18T05:37:42.898Z,98610.34
2022-12-18T05:40:10.688Z,98609.28
2022-12-18T05:42:37.321Z,98620.53
2022-12-18T05:45:05.159Z,98624.19
2022-12-18T05:47:31.691Z,98644.69
2022-12-18T05:49:58.438Z,98655.13
2022-12-18T05:52:25.037Z,98649.16
2022-12-18T05:54:51.601Z,98666.09
2022-12-18T05:57:18.108Z,98674.31
2022-12-18T05:59:44.731Z,98686.22
2022-12-18T06:02:11.553Z,98697.09
2022-12-18T06:04:38.141Z,98703.47
2022-12-18T06:07:04.762Z,98702.25
2022-12-18T06:09:31.248Z,98706.56
2022-12-18T06:11:58.122Z,98716.06
2022-12-18T06:14:24.702Z,98719.31
2022-12-18T06:16:52.308Z,98716.19
2022-12-18T06:19:18.902Z,98722.56
2022-12-18T06:21:45.576Z,98736.09
2022-12-18T06:24:12.082Z,98736.22
2022-12-18T06:26:39.819Z,98746.50
2022-12-18T06:29:06.936Z,98748.16
2022-12-18T06:31:33.737Z,98740.97
2022-12-18T06:34:02.903Z,98751.94
2022-12-18T06:36:31.248Z,98756.94
2022-12-18T06:38:58.213Z,98773.47
2022-12-18T06:41:24.775Z,98776.56
2022-12-18T06:43:53.556Z,98809.22
2022-12-18T06:46:22.210Z,98790.41
2022-12-18T06:48:50.267Z,98829.50
2022-12-18T06:51:22.061Z,98805.41
2022-12-18T06:53:48.540Z,98805.66
2022-12-18T06:56:15.369Z,98820.16
2022-12-18T06:58:42.414Z,98820.03
2022-12-18T07:01:11.922Z,98830.06
2022-12-18T07:03:44.526Z,98835.47
2022-12-18T07:06:17.300Z,98848.06
2022-12-18T07:08:44.260Z,98847.66
2022-12-18T07:11:10.874Z,98859.84
2022-12-18T07:13:37.866Z,98873.25
2022-12-18T07:16:19.645Z,98853.50
2022-12-18T07:18:49.341Z,98845.22
2022-12-18T07:21:20.073Z,98857.28
2022-12-18T07:23:46.599Z,98866.78
2022-12-18T07:26:14.513Z,98874.91
2022-12-18T07:28:42.260Z,98899.25
2022-12-18T07:31:12.133Z,98882.59
2022-12-18T07:33:39.298Z,98892.22
2022-12-18T07:36:08.786Z,98903.19
2022-12-18T07:38:36.634Z,98892.50
2022-12-18T07:41:06.526Z,98887.34
2022-12-18T07:43:34.169Z,98894.94
2022-12-18T07:46:01.000Z,98916.84
2022-12-18T07:48:28.884Z,98918.75
2022-12-18T07:51:02.649Z,98922.84
2022-12-18T07:53:29.443Z,98914.69
2022-12-18T07:56:26.659Z,98908.91
2022-12-18T07:58:52.343Z,98919.16
2022-12-18T08:01:19.063Z,98920.00
2022-12-18T08:03:45.657Z,98920.25
2022-12-18T08:06:12.134Z,98924.31
2022-12-18T08:08:38.747Z,98943.13
2022-12-18T08:11:05.499Z,98944.19
2022-12-18T08:13:32.499Z,98976.00
2022-12-18T08:16:07.713Z,98958.94
2022-12-18T08:18:36.212Z,98966.78
2022-12-18T08:21:10.775Z,98973.16
2022-12-18T08:23:42.315Z,98970.28
2022-12-18T08:26:10.676Z,98971.13
2022-12-18T08:28:37.184Z,98984.97
2022-12-18T08:31:04.225Z,98989.59
2022-12-18T08:33:31.158Z,98995.44
2022-12-18T08:35:59.706Z,99001.47
2022-12-18T08:38:26.291Z,99008.50
2022-12-18T08:41:07.431Z,99003.38
2022-12-18T08:43:34.375Z,99019.41
2022-12-18T08:46:00.973Z,99014.53
2022-12-18T08:48:27.555Z,99024.97
2022-12-18T08:51:00.922Z,99027.22
2022-12-18T08:53:31.496Z,99043.50
2022-12-18T08:56:02.103Z,99040.38
2022-12-18T08:58:28.594Z,99042.00
2022-12-18T09:00:55.254Z,99034.97
2022-12-18T09:03:22.435Z,99040.63
2022-12-18T09:05:49.450Z,99038.88
2022-12-18T09:08:15.985Z,99041.81
2022-12-18T09:10:47.222Z,99044.56
2022-12-18T09:13:14.428Z,99050.78
2022-12-18T09:15:48.943Z,99063.91
2022-12-18T09:18:17.476Z,99058.25
2022-12-18T09:20:44.648Z,99067.50
2022-12-18T09:23:11.988Z,99065.47
2022-12-18T09:25:39.348Z,99074.44
2022-12-18T09:28:17.975Z,99074.06
2022-12-18T09:30:47.749Z,99080.06
2022-12-18T09:33:14.651Z,99082.50
2022-12-18T09:35:42.582Z,99084.94
2022-12-18T09:38:13.115Z,99086.97
2022-12-18T09:40:49.326Z,99100.25
2022-12-18T09:43:23.924Z,99101.94
2022-12-18T09:45:54.965Z,99106.34
2022-12-18T09:48:27.196Z,99105.59
2022-12-18T09:50:59.594Z,99114.94
2022-12-18T09:53:31.257Z,99132.38
2022-12-18T09:55:58.535Z,99108.59
2022-12-18T09:58:35.970Z,99106.31
2022-12-18T10:01:02.996Z,99110.66
2022-12-18T10:03:29.522Z,99104.50
2022-12-18T10:06:12.785Z,99109.09
2022-12-18T10:08:51.569Z,99112.22
2022-12-18T10:11:37.112Z,99115.44
2022-12-18T10:14:30.577Z,99123.28
2022-12-18T10:17:12.383Z,99117.44
2022-12-18T10:19:51.047Z,99126.09
2022-12-18T10:22:24.832Z,99129.06
2022-12-18T10:25:21.045Z,99131.53
2022-12-18T10:27:48.380Z,99133.72
2022-12-18T10:30:19.333Z,99132.47
2022-12-18T10:32:45.914Z,99132.69
2022-12-18T10:35:27.713Z,99146.81
2022-12-18T10:38:20.367Z,99144.69
2022-12-18T10:40:52.833Z,99146.19
2022-12-18T10:43:37.206Z,99150.94
2022-12-18T10:46:10.325Z,99158.78
2022-12-18T10:48:40.365Z,99162.97
2022-12-18T10:51:12.248Z,99173.97
2022-12-18T10:53:43.267Z,99176.28
2022-12-18T10:56:10.329Z,99175.47
2022-12-18T10:58:39.036Z,99179.56
2022-12-18T11:01:14.613Z,99186.19
2022-12-18T11:03:47.076Z,99187.50
2022-12-18T11:06:19.942Z,99198.50
2022-12-18T11:09:06.581Z,99205.75
2022-12-18T11:11:39.735Z,99203.44
2022-12-18T11:14:14.701Z,99206.34
2022-12-18T11:17:03.117Z,99206.91
2022-12-18T11:19:41.930Z,99208.03
2022-12-18T11:22:29.201Z,99212.50
2022-12-18T11:27:53.258Z,99219.97
2022-12-18T11:30:29.902Z,99222.34
2022-12-18T11:33:23.265Z,99226.78
2022-12-18T11:36:03.797Z,99230.25
2022-12-18T11:38:30.438Z,99236.63
2022-12-18T11:41:21.547Z,99234.53
2022-12-18T11:43:57.717Z,99245.53
2022-12-18T11:46:31.934Z,99245.56
2022-12-18T11:49:14.986Z,99249.50
2022-12-18T11:51:55.657Z,99249.03
2022-12-18T11:54:22.304Z,99260.47
2022-12-18T11:56:59.559Z,99260.22
2022-12-18T11:59:34.351Z,99267.38
2022-12-18T12:02:15.322Z,99273.31
2022-12-18T12:04:51.406Z,99281.75
2022-12-18T12:07:17.884Z,99284.59
2022-12-18T12:10:01.507Z,99286.09
2022-12-18T12:12:36.687Z,99291.47
2022-12-18T12:15:41.939Z,99292.53
2022-12-18T12:18:20.879Z,99295.56
2022-12-18T12:21:01.886Z,99300.59
2022-12-18T12:23:50.178Z,99297.31
2022-12-18T12:26:43.686Z,99304.69
2022-12-18T12:29:41.627Z,99311.69
2022-12-18T12:32:13.244Z,99321.75
2022-12-18T12:34:47.462Z,99314.84
2022-12-18T12:37:20.463Z,99322.44
2022-12-18T12:39:49.007Z,99331.09
2022-12-18T12:42:26.708Z,99340.69
2022-12-18T12:44:58.102Z,99341.38
2022-12-18T12:47:31.500Z,99352.84
2022-12-18T12:50:01.313Z,99353.78
2022-12-18T12:52:34.574Z,99358.91
2022-12-18T12:55:08.049Z,99362.44
2022-12-18T12:57:46.027Z,99364.75
2022-12-18T13:00:18.890Z,99379.25
2022-12-18T13:03:11.324Z,99382.19
2022-12-18T13:05:54.071Z,99377.63
2022-12-18T13:08:27.492Z,99386.03
2022-12-18T13:10:59.296Z,99396.09
2022-12-18T13:13:26.589Z,99396.31
2022-12-18T13:16:08.651Z,99404.03
2022-12-18T13:18:36.032Z,99414.56
2022-12-18T13:21:11.829Z,99402.75
2022-12-18T13:23:40.487Z,99415.59
2022-12-18T13:26:07.477Z,99411.75
2022-12-18T13:28:34.028Z,99420.06
2022-12-18T13:31:01.938Z,99419.94
2022-12-18T13:34:16.429Z,99425.69
2022-12-18T13:36:33.212Z,99452.41
2022-12-18T13:39:26.716Z,99427.66
2022-12-18T13:42:05.880Z,99435.47
2022-12-18T13:44:40.936Z,99431.63
2022-12-18T13:47:37.287Z,99430.69
2022-12-18T13:50:25.196Z,99440.84
2022-12-18T13:52:53.476Z,99447.75
2022-12-18T13:55:21.710Z,99448.44
2022-12-18T13:57:48.323Z,99461.44
2022-12-18T14:00:30.258Z,99465.53
2022-12-18T14:02:58.740Z,99464.34
2022-12-18T14:05:28.375Z,99473.00
2022-12-18T14:07:56.057Z,99467.28
2022-12-18T14:10:45.991Z,99482.72
2022-12-18T14:13:12.294Z,99481.31
2022-12-18T14:15:49.001Z,99481.53
2022-12-18T14:18:15.446Z,99488.91
2022-12-18T14:20:50.665Z,99488.88
2022-12-18T14:23:29.416Z,99490.97
2022-12-18T14:25:58.567Z,99490.19
2022-12-18T14:28:27.815Z,99499.16
2022-12-18T14:30:55.282Z,99495.19
2022-12-18T14:33:23.970Z,99511.88
2022-12-18T14:35:56.475Z,99514.06
2022-12-18T14:38:40.966Z,99511.72
2022-12-18T14:41:16.173Z,99525.00
2022-12-18T14:43:48.261Z,99513.66
2022-12-18T14:46:33.870Z,99514.59
2022-12-18T14:49:04.290Z,99522.44
2022-12-18T14:51:33.203Z,99526.06
2022-12-18T14:54:05.867Z,99531.47
2022-12-18T14:56:35.272Z,99526.84
2022-12-18T14:59:14.602Z,99525.94
2022-12-18T15:02:02.140Z,99536.06
2022-12-18T15:04:39.029Z,99550.22
2022-12-18T15:07:13.607Z,99549.25
2022-12-18T15:09:42.623Z,99554.06
2022-12-18T15:12:36.499Z,99562.13
2022-12-18T15:15:06.491Z,99567.28
2022-12-18T15:17:33.049Z,99566.34
2022-12-18T15:20:03.275Z,99571.00
2022-12-18T15:22:34.921Z,99584.00
2022-12-18T15:25:02.563Z,99583.13
2022-12-18T15:27:33.916Z,99585.81
2022-12-18T15:30:18.563Z,99603.25
2022-12-18T15:32:46.016Z,99591.53
2022-12-18T15:35:23.102Z,99596.69
2022-12-18T15:37:51.247Z,99600.19
2022-12-18T15:40:23.260Z,99602.44
2022-12-18T15:42:52.742Z,99602.44
2022-12-18T15:45:19.282Z,99607.84
2022-12-18T15:47:46.468Z,99610.19
2022-12-18T15:50:13.160Z,99614.78
2022-12-18T15:52:45.084Z,99646.00
2022-12-18T15:55:13.967Z,99613.97
2022-12-18T15:57:40.558Z,99624.25
2022-12-18T16:00:12.401Z,99624.72
2022-12-18T16:02:38.976Z,99623.63
2022-12-18T16:05:15.421Z,99638.00
2022-12-18T16:07:41.966Z,99642.00
2022-12-18T16:10:08.788Z,99638.41
2022-12-18T16:12:35.492Z,99641.69
2022-12-18T16:15:05.705Z,99647.00
2022-12-18T16:17:32.505Z,99664.47
2022-12-18T16:19:59.813Z,99669.91
2022-12-18T16:22:29.392Z,99679.78
2022-12-18T16:24:57.519Z,99672.84
2022-12-18T16:27:25.493Z,99678.31
2022-12-18T16:29:52.002Z,99689.53
2022-12-18T16:32:23.402Z,99688.53
2022-12-18T16:34:51.030Z,99686.59
2022-12-18T16:37:17.769Z,99687.59
2022-12-18T16:39:45.189Z,99698.59
2022-12-18T16:42:11.703Z,99700.25
2022-12-18T16:44:38.178Z,99702.91
2022-12-18T16:47:05.029Z,99712.66
2022-12-18T16:49:33.805Z,99703.72
2022-12-18T16:52:03.657Z,99708.66
2022-12-18T16:54:30.134Z,99710.59
2022-12-18T16:56:57.645Z,99748.50
2022-12-18T16:59:24.252Z,99725.81
2022-12-18T17:01:50.965Z,99730.94
2022-12-18T17:04:17.927Z,99748.13
2022-12-18T17:06:45.925Z,99760.34
2022-12-18T17:09:14.378Z,99736.19
2022-12-18T17:11:41.974Z,99746.09
2022-12-18T17:14:13.048Z,99762.03
2022-12-18T17:16:40.124Z,99756.56
2022-12-18T17:19:13.613Z,99765.41
2022-12-18T17:21:49.047Z,99763.78
2022-12-18T17:24:16.091Z,99769.13
2022-12-18T17:26:44.139Z,99762.75
2022-12-18T17:29:14.374Z,99772.31
2022-12-18T17:31:41.130Z,99776.03
2022-12-18T17:34:09.547Z,99781.66
2022-12-18T17:36:36.102Z,99786.19
2022-12-18T17:39:04.860Z,99798.72
2022-12-18T17:41:32.138Z,99793.19
2022-12-18T17:44:01.131Z,99804.38
2022-12-18T17:46:31.020Z,99807.88
2022-12-18T17:48:58.603Z,99807.97
2022-12-18T17:51:25.876Z,99811.56
2022-12-18T17:53:52.772Z,99822.78
2022-12-18T17:56:22.244Z,99821.75
2022-12-18T17:58:49.458Z,99827.09
2022-12-18T18:01:19.466Z,99828.13
2022-12-18T18:03:47.812Z,99837.78
2022-12-18T18:06:18.397Z,99848.88
2022-12-18T18:08:45.001Z,99855.88
2022-12-18T18:11:14.905Z,99842.44
2022-12-18T18:13:46.644Z,99847.69
2022-12-18T18:16:13.906Z,99861.00
2022-12-18T18:18:40.469Z,99864.69
2022-12-18T18:21:08.577Z,99870.75
2022-12-18T18:23:36.071Z,99879.38
2022-12-18T18:26:07.305Z,99884.78
2022-12-18T18:28:35.088Z,99884.97
2022-12-18T18:31:11.151Z,99891.41
2022-12-18T18:36:23.001Z,99912.66
2022-12-18T18:38:50.766Z,99922.19
2022-12-18T18:41:17.331Z,99936.03
2022-12-18T18:43:45.303Z,99939.72
2022-12-18T18:46:14.142Z,99940.72
2022-12-18T18:48:41.638Z,99947.88
2022-12-18T18:51:20.139Z,99956.41
2022-12-18T18:53:50.686Z,99956.59
2022-12-18T18:56:45.454Z,99967.13
2022-12-18T18:59:06.847Z,99978.69
2022-12-18T19:01:33.563Z,99962.69
2022-12-18T19:04:01.023Z,99975.97
2022-12-18T19:06:28.920Z,99968.00
2022-12-18T19:08:57.366Z,99985.03
2022-12-18T19:11:25.238Z,99985.19
2022-12-18T19:13:51.789Z,99998.56
2022-12-18T19:16:18.892Z,99998.00
2022-12-18T19:18:45.740Z,100004.31
2022-12-18T19:21:12.383Z,100000.66
2022-12-18T19:23:38.960Z,100007.34
2022-12-18T19:28:54.063Z,100028.03
2022-12-18T19:31:25.428Z,100030.03
2022-12-18T19:33:53.664Z,100040.44
2022-12-18T19:36:27.243Z,100041.44
2022-12-18T19:38:55.833Z,100049.38
2022-12-18T19:41:23.915Z,100043.78
2022-12-18T19:43:52.703Z,100052.75
2022-12-18T19:46:21.954Z,100079.41
2022-12-18T19:48:49.234Z,100070.16
2022-12-18T19:51:18.450Z,100065.28
2022-12-18T19:53:45.558Z,100074.47
2022-12-18T19:58:41.357Z,100079.34
2022-12-18T20:01:12.855Z,100089.66
2022-12-18T20:03:41.385Z,100096.78
2022-12-18T20:06:13.211Z,100096.38
2022-12-18T20:08:40.306Z,100111.63
2022-12-18T20:11:07.529Z,100122.66
2022-12-18T20:13:34.516Z,100119.69
2022-12-18T20:16:01.098Z,100126.22
2022-12-18T20:18:27.707Z,100136.72
2022-12-18T20:20:54.472Z,100134.16
2022-12-18T20:23:23.154Z,100132.31
2022-12-18T20:25:52.885Z,100142.19
2022-12-18T20:28:19.959Z,100139.72
2022-12-18T20:30:46.471Z,100149.63
2022-12-18T20:33:12.977Z,100157.25
2022-12-18T20:35:39.618Z,100160.22
2022-12-18T20:38:07.426Z,100154.81
2022-12-18T20:40:34.653Z,100168.88
2022-12-18T20:43:01.254Z,100179.09
2022-12-18T20:45:30.782Z,100177.81
2022-12-18T20:47:57.290Z,100179.53
2022-12-18T20:50:23.927Z,100189.00
2022-12-18T20:52:50.509Z,100188.91
2022-12-18T20:55:17.303Z,100193.06
2022-12-18T20:57:44.014Z,100193.28
2022-12-18T21:00:11.743Z,100203.41
2022-12-18T21:02:40.032Z,100199.97
2022-12-18T21:05:07.126Z,100200.25
2022-12-18T21:07:33.750Z,100195.00
2022-12-18T21:10:00.249Z,100209.50
2022-12-18T21:12:26.880Z,100210.47
2022-12-18T21:14:53.463Z,100213.44
2022-12-18T21:17:19.966Z,100219.44
2022-12-18T21:19:47.276Z,100221.22
2022-12-18T21:22:14.582Z,100227.38
2022-12-18T21:24:41.351Z,100230.34
2022-12-18T21:27:08.380Z,100224.34
2022-12-18T21:29:37.209Z,100224.91
2022-12-18T21:32:04.849Z,100231.03
2022-12-18T21:34:32.929Z,100229.31
2022-12-18T21:37:00.764Z,100233.09
2022-12-18T21:39:28.652Z,100228.00
2022-12-18T21:41:56.034Z,100234.97
2022-12-18T21:44:23.474Z,100245.44
2022-12-18T21:46:55.825Z,100248.94
2022-12-18T21:49:27.055Z,100239.97
2022-12-18T21:51:56.512Z,100251.88
2022-12-18T21:54:25.447Z,100266.56
2022-12-18T21:57:06.432Z,100273.69
2022-12-18T21:59:38.071Z,100271.25
2022-12-18T22:02:18.361Z,100274.63
2022-12-18T22:04:45.983Z,100279.44
2022-12-18T22:07:14.253Z,100274.47
2022-12-18T22:09:41.323Z,100282.81
2022-12-18T22:12:08.715Z,100307.09
2022-12-18T22:14:36.606Z,100290.25
2022-12-18T22:17:03.220Z,100294.59
2022-12-18T22:19:30.520Z,100304.00
2022-12-18T22:21:57.090Z,100306.63
2022-12-18T22:24:25.614Z,100305.78
2022-12-18T22:26:53.525Z,100301.75
2022-12-18T22:29:25.302Z,100307.44
2022-12-18T22:31:51.910Z,100311.84
2022-12-18T22:34:22.800Z,100311.09
2022-12-18T22:36:50.535Z,100320.63
2022-12-18T22:39:23.184Z,100317.75
2022-12-18T22:41:50.505Z,100317.81
2022-12-18T22:44:18.181Z,100311.41
2022-12-18T22:46:52.209Z,100320.66
2022-12-18T22:49:31.957Z,100332.59
2022-12-18T22:52:00.490Z,100328.50
2022-12-18T22:54:27.061Z,100330.94
2022-12-18T22:56:53.606Z,100338.69
2022-12-18T22:59:23.126Z,100342.00
2022-12-18T23:01:51.421Z,100347.22
2022-12-18T23:04:23.702Z,100349.66
2022-12-18T23:06:52.586Z,100354.19
2022-12-18T23:09:20.063Z,100359.44
2022-12-18T23:11:48.019Z,100361.09
2022-12-18T23:14:15.800Z,100362.19
2022-12-18T23:16:42.609Z,100370.13
2022-12-18T23:19:11.795Z,100369.41
2022-12-18T23:21:38.603Z,100364.09
2022-12-18T23:24:05.417Z,100366.81
2022-12-18T23:26:32.112Z,100383.75
2022-12-18T23:28:58.639Z,100382.34
2022-12-18T23:31:31.057Z,100378.25
2022-12-18T23:34:00.024Z,100403.78
2022-12-18T23:36:27.389Z,100377.63
2022-12-18T23:38:57.009Z,100384.25
2022-12-18T23:41:26.232Z,100381.66
2022-12-18T23:43:53.870Z,100395.44
2022-12-18T23:46:32.176Z,100396.09
2022-12-18T23:49:00.466Z,100402.38
2022-12-18T23:51:27.702Z,100408.63
2022-12-18T23:53:59.560Z,100406.09
2022-12-18T23:56:27.575Z,100406.63
2022-12-18T23:58:54.187Z,100423.94
